createdAt,value
2022-10-19T00:02:19.419Z,103034.44
2022-10-19T00:04:45.988Z,103030.91
2022-10-19T00:07:12.448Z,103037.53
2022-10-19T00:09:39.478Z,103043.44
2022-10-19T00:12:06.036Z,103044.22
2022-10-19T00:14:32.508Z,103033.72
2022-10-19T00:16:59.196Z,103028.47
2022-10-19T00:19:27.693Z,103025.91
2022-10-19T00:21:54.752Z,103024.94
2022-10-19T00:24:21.818Z,103020.41
2022-10-19T00:26:48.377Z,103017.69
2022-10-19T00:29:15.695Z,103005.31
2022-10-19T00:31:42.711Z,103009.03
2022-10-19T00:34:10.018Z,103018.56
2022-10-19T00:36:38.896Z,103012.47
2022-10-19T00:39:10.999Z,103015.91
2022-10-19T00:41:38.168Z,103025.19
2022-10-19T00:44:13.777Z,103018.59
2022-10-19T00:46:43.156Z,103015.97
2022-10-19T00:49:12.880Z,103012.16
2022-10-19T00:51:46.971Z,103015.78
2022-10-19T00:54:14.274Z,103015.38
2022-10-19T00:56:44.069Z,103016.38
2022-10-19T00:59:12.967Z,103025.13
2022-10-19T01:01:39.644Z,103020.78
2022-10-19T01:04:06.315Z,103024.31
2022-10-19T01:06:33.977Z,103022.47
2022-10-19T01:09:00.912Z,103011.25
2022-10-19T01:11:52.105Z,103020.88
2022-10-19T01:14:27.312Z,103007.03
2022-10-19T01:17:05.515Z,103008.91
2022-10-19T01:20:07.839Z,103010.94
2022-10-19T01:23:05.398Z,103009.72
2022-10-19T01:25:43.737Z,103014.53
2022-10-19T01:28:47.762Z,103014.47
2022-10-19T01:31:45.274Z,103003.63
2022-10-19T01:34:17.549Z,103000.53
2022-10-19T01:36:52.570Z,102997.34
2022-10-19T01:39:26.776Z,103006.13
2022-10-19T01:42:03.127Z,103007.44
2022-10-19T01:44:38.814Z,103006.38
2022-10-19T01:47:10.814Z,102997.19
2022-10-19T01:49:52.415Z,102996.31
2022-10-19T01:52:20.745Z,102991.69
2022-10-19T01:54:52.121Z,102983.56
2022-10-19T01:57:23.949Z,102992.06
2022-10-19T01:59:52.296Z,102993.53
2022-10-19T02:02:21.119Z,102985.31
2022-10-19T02:04:50.267Z,102992.19
2022-10-19T02:07:16.789Z,102991.03
2022-10-19T02:09:43.273Z,102985.75
2022-10-19T02:12:11.344Z,103000.91
2022-10-19T02:14:43.949Z,102992.84
2022-10-19T02:17:14.717Z,102993.84
2022-10-19T02:19:41.737Z,102975.47
2022-10-19T02:22:09.275Z,102976.88
2022-10-19T02:24:35.860Z,102981.00
2022-10-19T02:27:05.509Z,102974.69
2022-10-19T02:29:33.814Z,102977.09
2022-10-19T02:32:01.782Z,102981.94
2022-10-19T02:34:28.454Z,102983.41
2022-10-19T02:36:55.623Z,102975.66
2022-10-19T02:39:22.713Z,102971.63
2022-10-19T02:41:55.994Z,102971.44
2022-10-19T02:44:37.017Z,102980.22
2022-10-19T02:47:07.214Z,102986.22
2022-10-19T02:49:36.057Z,102986.09
2022-10-19T02:52:08.764Z,102974.59
2022-10-19T02:54:35.811Z,102976.28
2022-10-19T02:57:14.633Z,102967.94
2022-10-19T02:59:41.266Z,102976.59
2022-10-19T03:02:07.773Z,102960.09
2022-10-19T03:04:34.459Z,102973.66
2022-10-19T03:07:01.570Z,102955.44
2022-10-19T03:09:28.265Z,102968.47
2022-10-19T03:11:57.694Z,102958.00
2022-10-19T03:14:24.290Z,102967.47
2022-10-19T03:16:50.761Z,102966.38
2022-10-19T03:19:17.412Z,102974.94
2022-10-19T03:21:43.942Z,102973.06
2022-10-19T03:24:10.390Z,102972.88
2022-10-19T03:26:36.910Z,102957.84
2022-10-19T03:29:04.366Z,102962.09
2022-10-19T03:31:30.949Z,102964.44
2022-10-19T03:33:57.472Z,102953.44
2022-10-19T03:36:26.753Z,102956.75
2022-10-19T03:38:58.591Z,102949.78
2022-10-19T03:41:27.658Z,102951.47
2022-10-19T03:43:54.436Z,102949.59
2022-10-19T03:46:21.583Z,102945.25
2022-10-19T03:48:48.311Z,102944.38
2022-10-19T03:51:17.731Z,102953.03
2022-10-19T03:53:44.765Z,102954.44
2022-10-19T03:56:15.570Z,102962.75
2022-10-19T03:58:43.675Z,102947.81
2022-10-19T04:01:16.202Z,102947.44
2022-10-19T04:03:43.049Z,102950.66
2022-10-19T04:06:18.334Z,102957.06
2022-10-19T04:08:48.923Z,102962.16
2022-10-19T04:11:17.262Z,102958.56
2022-10-19T04:13:43.799Z,102947.34
2022-10-19T04:16:13.735Z,102956.75
2022-10-19T04:18:40.242Z,102947.13
2022-10-19T04:21:07.374Z,102955.47
2022-10-19T04:23:36.019Z,102956.28
2022-10-19T04:26:07.754Z,102960.59
2022-10-19T04:28:34.644Z,102947.44
2022-10-19T04:31:05.202Z,102957.75
2022-10-19T04:33:32.648Z,102955.13
2022-10-19T04:36:03.013Z,102943.78
2022-10-19T04:38:29.917Z,102952.34
2022-10-19T04:41:02.158Z,102951.34
2022-10-19T04:43:28.983Z,102954.59
2022-10-19T04:45:55.507Z,102952.16
2022-10-19T04:48:22.062Z,102952.91
2022-10-19T04:50:48.519Z,102953.91
2022-10-19T04:53:15.052Z,102945.38
2022-10-19T04:55:42.563Z,102958.44
2022-10-19T04:58:09.605Z,102959.53
2022-10-19T05:00:39.172Z,102956.06
2022-10-19T05:03:05.981Z,102952.44
2022-10-19T05:05:33.306Z,102955.88
2022-10-19T05:08:00.421Z,102952.34
2022-10-19T05:10:27.082Z,102954.19
2022-10-19T05:12:53.894Z,102949.78
2022-10-19T05:15:20.931Z,102946.81
2022-10-19T05:17:47.462Z,102951.75
2022-10-19T05:20:13.963Z,102950.66
2022-10-19T05:22:40.592Z,102937.69
2022-10-19T05:25:08.005Z,102935.81
2022-10-19T05:27:34.769Z,102942.59
2022-10-19T05:30:01.373Z,102941.13
2022-10-19T05:32:28.979Z,102932.84
2022-10-19T05:34:55.573Z,102946.16
2022-10-19T05:37:22.041Z,102939.13
2022-10-19T05:39:48.517Z,102951.84
2022-10-19T05:42:15.014Z,102944.75
2022-10-19T05:44:41.563Z,102936.56
2022-10-19T05:47:08.194Z,102942.66
2022-10-19T05:49:34.673Z,102936.66
2022-10-19T05:52:01.140Z,102940.22
2022-10-19T05:54:28.591Z,102935.38
2022-10-19T05:56:55.816Z,102942.47
2022-10-19T05:59:23.564Z,102952.81
2022-10-19T06:01:50.560Z,102943.16
2022-10-19T06:06:48.552Z,102947.97
2022-10-19T06:09:15.235Z,102952.38
2022-10-19T06:11:43.011Z,102955.94
2022-10-19T06:14:13.700Z,102950.72
2022-10-19T06:16:40.267Z,102949.16
2022-10-19T06:19:06.770Z,102948.56
2022-10-19T06:21:34.703Z,102947.00
2022-10-19T06:24:05.165Z,102941.09
2022-10-19T06:26:33.453Z,102940.31
2022-10-19T06:29:01.665Z,102943.88
2022-10-19T06:31:30.237Z,102950.16
2022-10-19T06:33:57.027Z,102949.69
2022-10-19T06:36:26.486Z,102947.50
2022-10-19T06:38:56.637Z,102956.47
2022-10-19T06:41:23.984Z,102947.44
2022-10-19T06:43:55.434Z,102955.00
2022-10-19T06:46:26.952Z,102964.16
2022-10-19T06:48:58.563Z,102959.31
2022-10-19T06:51:27.701Z,102952.16
2022-10-19T06:53:57.168Z,102954.13
2022-10-19T06:56:25.541Z,102959.72
2022-10-19T06:58:52.855Z,102953.13
2022-10-19T07:01:19.954Z,102943.88
2022-10-19T07:03:46.613Z,102947.59
2022-10-19T07:06:14.034Z,102939.34
2022-10-19T07:08:42.310Z,102930.84
2022-10-19T07:11:12.047Z,102927.81
2022-10-19T07:13:38.760Z,102917.03
2022-10-19T07:16:08.295Z,102922.56
2022-10-19T07:18:36.645Z,102926.38
2022-10-19T07:21:06.603Z,102930.56
2022-10-19T07:23:34.770Z,102926.88
2022-10-19T07:26:21.069Z,102916.84
2022-10-19T07:28:49.155Z,102911.47
2022-10-19T07:31:17.994Z,102938.16
2022-10-19T07:33:45.000Z,102936.19
2022-10-19T07:36:13.823Z,102924.66
2022-10-19T07:38:41.058Z,102938.78
2022-10-19T07:41:12.709Z,102931.00
2022-10-19T07:43:40.546Z,102933.66
2022-10-19T07:46:09.617Z,102930.25
2022-10-19T07:48:36.270Z,102930.84
2022-10-19T07:51:05.558Z,102923.13
2022-10-19T07:53:32.858Z,102935.53
2022-10-19T07:56:08.557Z,102937.19
2022-10-19T07:58:36.463Z,102931.63
2022-10-19T08:01:21.449Z,102927.66
2022-10-19T08:06:35.161Z,102924.03
2022-10-19T08:09:01.772Z,102924.81
2022-10-19T08:11:31.065Z,102930.19
2022-10-19T08:14:02.742Z,102928.72
2022-10-19T08:16:33.893Z,102934.53
2022-10-19T08:19:03.396Z,102928.88
2022-10-19T08:21:31.096Z,102930.38
2022-10-19T08:23:58.270Z,102926.34
2022-10-19T08:26:25.842Z,102938.91
2022-10-19T08:28:52.429Z,102940.38
2022-10-19T08:31:25.553Z,102928.75
2022-10-19T08:33:52.068Z,102929.16
2022-10-19T08:36:19.814Z,102920.28
2022-10-19T08:38:48.410Z,102917.06
2022-10-19T08:41:21.750Z,102917.47
2022-10-19T08:44:17.475Z,102922.94
2022-10-19T08:46:50.042Z,102925.16
2022-10-19T08:49:20.509Z,102925.63
2022-10-19T08:51:53.587Z,102922.34
2022-10-19T08:54:20.039Z,102921.47
2022-10-19T08:57:18.941Z,102918.50
2022-10-19T08:59:47.997Z,102911.22
2022-10-19T09:02:21.756Z,102902.91
2022-10-19T09:04:56.031Z,102891.13
2022-10-19T09:07:28.999Z,102893.81
2022-10-19T09:10:19.033Z,102895.03
2022-10-19T09:13:15.105Z,102895.78
2022-10-19T09:15:48.284Z,102888.06
2022-10-19T09:18:21.765Z,102885.56
2022-10-19T09:20:51.692Z,102883.44
2022-10-19T09:23:39.649Z,102875.94
2022-10-19T09:26:21.988Z,102870.88
2022-10-19T09:28:58.427Z,102882.47
2022-10-19T09:31:31.809Z,102869.38
2022-10-19T09:34:34.984Z,102875.03
2022-10-19T09:37:01.705Z,102867.75
2022-10-19T09:39:30.372Z,102861.72
2022-10-19T09:41:59.700Z,102863.56
2022-10-19T09:44:27.530Z,102867.31
2022-10-19T09:47:32.199Z,102864.75
2022-10-19T09:50:14.802Z,102855.19
2022-10-19T09:52:43.265Z,102853.91
2022-10-19T09:55:15.830Z,102854.47
2022-10-19T09:57:47.919Z,102855.31
2022-10-19T10:00:23.156Z,102844.47
2022-10-19T10:02:54.687Z,102848.06
2022-10-19T10:05:32.619Z,102843.06
2022-10-19T10:07:59.378Z,102844.06
2022-10-19T10:10:38.502Z,102846.63
2022-10-19T10:13:06.112Z,102851.19
2022-10-19T10:15:44.086Z,102850.53
2022-10-19T10:18:15.505Z,102852.09
2022-10-19T10:21:25.131Z,102855.28
2022-10-19T10:24:10.912Z,102845.50
2022-10-19T10:26:49.320Z,102852.31
2022-10-19T10:29:24.942Z,102855.16
2022-10-19T10:31:55.252Z,102845.59
2022-10-19T10:35:03.217Z,102845.97
2022-10-19T10:37:21.616Z,102836.66
2022-10-19T10:39:52.569Z,102846.94
2022-10-19T10:42:22.233Z,102845.94
2022-10-19T10:44:53.245Z,102840.34
2022-10-19T10:47:21.239Z,102845.09
2022-10-19T10:50:01.143Z,102839.53
2022-10-19T10:52:31.433Z,102829.47
2022-10-19T10:55:08.270Z,102829.72
2022-10-19T10:57:40.039Z,102822.81
2022-10-19T11:00:16.733Z,102815.84
2022-10-19T11:02:54.389Z,102809.66
2022-10-19T11:05:26.746Z,102815.91
2022-10-19T11:08:01.400Z,102797.88
2022-10-19T11:10:35.356Z,102784.31
2022-10-19T11:13:10.331Z,102782.00
2022-10-19T11:15:47.132Z,102777.63
2022-10-19T11:18:22.547Z,102775.72
2022-10-19T11:21:06.205Z,102767.25
2022-10-19T11:23:45.123Z,102743.84
2022-10-19T11:26:32.260Z,102753.66
2022-10-19T11:29:17.073Z,102753.22
2022-10-19T11:31:55.272Z,102743.91
2022-10-19T11:34:30.575Z,102751.25
2022-10-19T11:37:15.015Z,102737.63
2022-10-19T11:40:00.975Z,102731.97
2022-10-19T11:42:49.550Z,102729.78
2022-10-19T11:45:28.478Z,102725.22
2022-10-19T11:48:03.916Z,102717.69
2022-10-19T11:50:38.607Z,102709.84
2022-10-19T11:53:19.338Z,102705.78
2022-10-19T11:56:07.802Z,102706.84
2022-10-19T12:01:59.481Z,102678.31
2022-10-19T12:04:25.958Z,102679.97
2022-10-19T12:07:15.232Z,102675.50
2022-10-19T12:09:55.561Z,102666.06
2022-10-19T12:12:33.425Z,102664.22
2022-10-19T12:15:12.395Z,102649.75
2022-10-19T12:17:42.585Z,102647.22
2022-10-19T12:20:20.037Z,102640.09
2022-10-19T12:22:49.886Z,102631.41
2022-10-19T12:25:18.768Z,102633.94
2022-10-19T12:27:47.756Z,102633.19
2022-10-19T12:30:23.106Z,102619.19
2022-10-19T12:32:59.356Z,102624.50
2022-10-19T12:35:42.648Z,102609.88
2022-10-19T12:38:23.352Z,102591.06
2022-10-19T12:41:01.951Z,102593.72
2022-10-19T12:43:40.712Z,102595.69
2022-10-19T12:46:49.900Z,102594.44
2022-10-19T12:49:26.227Z,102595.41
2022-10-19T12:51:55.250Z,102572.13
2022-10-19T12:54:27.424Z,102587.63
2022-10-19T12:56:56.326Z,102575.56
2022-10-19T12:59:26.322Z,102563.44
2022-10-19T13:01:54.346Z,102574.00
2022-10-19T13:04:30.082Z,102568.06
2022-10-19T13:06:56.525Z,102564.84
2022-10-19T13:09:34.396Z,102561.56
2022-10-19T13:12:19.859Z,102559.03
2022-10-19T13:15:00.727Z,102554.88
2022-10-19T13:17:36.916Z,102552.88
2022-10-19T13:20:15.615Z,102547.75
2022-10-19T13:22:47.084Z,102539.06
2022-10-19T13:25:19.641Z,102528.53
2022-10-19T13:27:52.311Z,102523.47
2022-10-19T13:30:41.735Z,102531.41
2022-10-19T13:33:29.768Z,102526.13
2022-10-19T13:35:59.296Z,102522.03
2022-10-19T13:38:28.847Z,102517.75
2022-10-19T13:40:55.487Z,102509.97
2022-10-19T13:43:34.872Z,102517.63
2022-10-19T13:46:10.635Z,102511.75
2022-10-19T13:49:02.233Z,102514.16
2022-10-19T13:51:47.961Z,102515.97
2022-10-19T13:54:42.159Z,102514.22
2022-10-19T13:57:23.479Z,102509.59
2022-10-19T14:00:03.536Z,102516.41
2022-10-19T14:03:00.713Z,102509.47
2022-10-19T14:08:34.500Z,102502.59
2022-10-19T14:11:19.168Z,102505.19
2022-10-19T14:13:46.571Z,102493.81
2022-10-19T14:16:21.536Z,102506.00
2022-10-19T14:18:55.681Z,102509.47
2022-10-19T14:21:34.096Z,102507.09
2022-10-19T14:24:01.155Z,102502.84
2022-10-19T14:26:30.970Z,102500.31
2022-10-19T14:28:59.786Z,102500.44
2022-10-19T14:31:34.042Z,102508.28
2022-10-19T14:34:03.931Z,102510.13
2022-10-19T14:36:38.238Z,102519.88
2022-10-19T14:39:05.818Z,102511.03
2022-10-19T14:41:37.800Z,102500.41
2022-10-19T14:44:44.580Z,102514.28
2022-10-19T14:47:26.625Z,102504.00
2022-10-19T14:49:53.630Z,102490.06
2022-10-19T14:55:02.243Z,102499.19
2022-10-19T14:57:34.830Z,102496.41
2022-10-19T15:00:06.522Z,102492.88
2022-10-19T15:02:47.129Z,102472.72
2022-10-19T15:05:27.175Z,102490.78
2022-10-19T15:07:54.823Z,102476.72
2022-10-19T15:10:25.985Z,102469.66
2022-10-19T15:13:00.549Z,102472.25
2022-10-19T15:15:30.547Z,102460.75
2022-10-19T15:18:00.123Z,102469.53
2022-10-19T15:20:27.537Z,102460.72
2022-10-19T15:22:55.257Z,102442.34
2022-10-19T15:25:37.028Z,102444.78
2022-10-19T15:28:39.148Z,102434.38
2022-10-19T15:31:18.850Z,102440.34
2022-10-19T15:33:49.709Z,102434.91
2022-10-19T15:36:17.536Z,102419.94
2022-10-19T15:38:47.640Z,102419.84
2022-10-19T15:41:20.460Z,102421.38
2022-10-19T15:43:52.851Z,102421.31
2022-10-19T15:46:31.069Z,102416.78
2022-10-19T15:48:59.722Z,102410.66
2022-10-19T15:51:26.293Z,102413.22
2022-10-19T15:53:53.488Z,102400.22
2022-10-19T15:56:21.191Z,102392.06
2022-10-19T15:58:52.185Z,102399.00
2022-10-19T16:01:24.742Z,102404.06
2022-10-19T16:03:51.552Z,102392.53
2022-10-19T16:06:19.477Z,102391.56
2022-10-19T16:08:46.565Z,102388.09
2022-10-19T16:11:17.732Z,102386.16
2022-10-19T16:13:44.560Z,102369.53
2022-10-19T16:16:20.506Z,102375.50
2022-10-19T16:18:47.329Z,102376.25
2022-10-19T16:21:14.710Z,102361.41
2022-10-19T16:23:42.244Z,102369.06
2022-10-19T16:26:09.716Z,102361.31
2022-10-19T16:28:36.236Z,102362.94
2022-10-19T16:31:02.918Z,102366.03
2022-10-19T16:33:29.620Z,102351.41
2022-10-19T16:35:56.105Z,102363.25
2022-10-19T16:38:22.585Z,102361.38
2022-10-19T16:40:49.042Z,102360.38
2022-10-19T16:43:15.498Z,102352.69
2022-10-19T16:45:42.866Z,102363.06
2022-10-19T16:48:12.788Z,102369.69
2022-10-19T16:50:39.533Z,102371.28
2022-10-19T16:53:12.256Z,102365.06
2022-10-19T16:55:40.559Z,102368.50
2022-10-19T16:58:07.491Z,102359.03
2022-10-19T17:00:35.262Z,102366.78
2022-10-19T17:03:01.890Z,102353.81
2022-10-19T17:05:28.969Z,102353.03
2022-10-19T17:07:55.456Z,102346.06
2022-10-19T17:10:21.995Z,102335.88
2022-10-19T17:12:48.611Z,102316.78
2022-10-19T17:15:41.540Z,102322.03
2022-10-19T17:18:01.793Z,102307.28
2022-10-19T17:20:28.307Z,102314.97
2022-10-19T17:22:54.818Z,102315.72
2022-10-19T17:25:21.320Z,102315.53
2022-10-19T17:27:51.905Z,102306.00
2022-10-19T17:30:18.595Z,102312.69
2022-10-19T17:32:45.291Z,102313.69
2022-10-19T17:35:12.324Z,102325.75
2022-10-19T17:37:38.846Z,102323.75
2022-10-19T17:40:06.517Z,102335.00
2022-10-19T17:42:36.491Z,102326.25
2022-10-19T17:45:03.531Z,102336.34
2022-10-19T17:47:30.585Z,102334.72
2022-10-19T17:49:57.074Z,102322.63
2022-10-19T17:52:23.580Z,102299.03
2022-10-19T17:55:11.066Z,102323.22
2022-10-19T17:57:37.205Z,102312.66
2022-10-19T18:00:05.813Z,102312.53
2022-10-19T18:02:32.327Z,102308.81
2022-10-19T18:04:58.872Z,102323.66
2022-10-19T18:07:26.192Z,102322.72
2022-10-19T18:09:52.857Z,102317.69
2022-10-19T18:12:19.355Z,102311.59
2022-10-19T18:14:45.871Z,102323.84
2022-10-19T18:17:12.421Z,102323.34
2022-10-19T18:19:38.927Z,102324.06
2022-10-19T18:22:05.434Z,102318.91
2022-10-19T18:24:32.963Z,102311.81
2022-10-19T18:26:59.483Z,102323.13
2022-10-19T18:29:27.040Z,102322.19
2022-10-19T18:31:53.910Z,102317.69
2022-10-19T18:34:25.667Z,102322.06
2022-10-19T18:36:52.619Z,102330.66
2022-10-19T18:39:19.462Z,102330.47
2022-10-19T18:41:46.035Z,102329.38
2022-10-19T18:44:13.547Z,102311.84
2022-10-19T18:46:41.239Z,102312.56
2022-10-19T18:49:08.958Z,102309.19
2022-10-19T18:51:36.204Z,102300.59
2022-10-19T18:54:02.780Z,102291.06
2022-10-19T18:56:29.542Z,102285.78
2022-10-19T18:58:57.103Z,102268.97
2022-10-19T19:01:26.940Z,102271.03
2022-10-19T19:03:55.998Z,102257.94
2022-10-19T19:06:30.376Z,102261.31
2022-10-19T19:08:58.168Z,102268.97
2022-10-19T19:11:33.013Z,102268.97
2022-10-19T19:14:06.230Z,102258.50
2022-10-19T19:16:35.247Z,102253.22
2022-10-19T19:19:02.060Z,102258.28
2022-10-19T19:21:30.560Z,102254.00
2022-10-19T19:24:00.213Z,102245.25
2022-10-19T19:26:29.021Z,102247.00
2022-10-19T19:28:56.786Z,102240.88
2022-10-19T19:31:23.804Z,102225.50
2022-10-19T19:33:50.445Z,102212.69
2022-10-19T19:36:18.277Z,102219.28
2022-10-19T19:38:46.173Z,102205.25
2022-10-19T19:41:14.664Z,102229.38
2022-10-19T19:43:42.620Z,102220.50
2022-10-19T19:46:13.085Z,102231.63
2022-10-19T19:48:41.539Z,102216.63
2022-10-19T19:51:09.923Z,102203.75
2022-10-19T19:53:37.777Z,102191.88
2022-10-19T19:56:06.401Z,102187.50
2022-10-19T19:58:33.525Z,102191.09
2022-10-19T20:01:00.647Z,102172.69
2022-10-19T20:03:27.238Z,102171.06
2022-10-19T20:05:53.767Z,102174.56
2022-10-19T20:08:20.249Z,102174.47
2022-10-19T20:10:46.743Z,102163.97
2022-10-19T20:13:13.221Z,102155.25
2022-10-19T20:15:39.923Z,102149.44
2022-10-19T20:18:06.920Z,102152.59
2022-10-19T20:20:33.464Z,102150.00
2022-10-19T20:22:59.919Z,102149.31
2022-10-19T20:25:26.957Z,102143.22
2022-10-19T20:27:53.433Z,102132.81
2022-10-19T20:30:20.090Z,102137.16
2022-10-19T20:32:46.559Z,102120.72
2022-10-19T20:35:13.041Z,102125.78
2022-10-19T20:37:39.554Z,102124.53
2022-10-19T20:40:08.778Z,102126.13
2022-10-19T20:42:36.141Z,102129.47
2022-10-19T20:45:03.037Z,102132.75
2022-10-19T20:47:30.367Z,102106.91
2022-10-19T20:49:57.458Z,102113.16
2022-10-19T20:52:23.986Z,102112.53
2022-10-19T20:54:50.529Z,102103.88
2022-10-19T20:57:17.015Z,102104.59
2022-10-19T20:59:45.594Z,102087.66
2022-10-19T21:02:12.075Z,102094.44
2022-10-19T21:04:38.867Z,102097.72
2022-10-19T21:07:05.400Z,102085.41
2022-10-19T21:09:32.175Z,102093.19
2022-10-19T21:11:59.274Z,102081.81
2022-10-19T21:14:28.868Z,102091.97
2022-10-19T21:16:59.363Z,102079.25
2022-10-19T21:19:27.890Z,102075.56
2022-10-19T21:21:57.009Z,102083.31
2022-10-19T21:24:27.314Z,102066.94
2022-10-19T21:26:54.242Z,102069.56
2022-10-19T21:29:21.090Z,102066.06
2022-10-19T21:31:49.773Z,102077.84
2022-10-19T21:34:22.499Z,102074.22
2022-10-19T21:36:49.164Z,102074.44
2022-10-19T21:39:16.482Z,102074.66
2022-10-19T21:41:42.960Z,102079.56
2022-10-19T21:44:09.527Z,102085.59
2022-10-19T21:46:36.053Z,102075.06
2022-10-19T21:49:02.552Z,102078.41
2022-10-19T21:51:39.333Z,102069.91
2022-10-19T21:56:40.958Z,102067.19
2022-10-19T21:59:07.690Z,102062.66
2022-10-19T22:01:38.611Z,102054.81
2022-10-19T22:04:12.869Z,102040.06
2022-10-19T22:06:40.026Z,102056.59
2022-10-19T22:09:08.939Z,102044.22
2022-10-19T22:11:35.789Z,102043.50
2022-10-19T22:14:04.352Z,102044.53
2022-10-19T22:16:32.808Z,102054.88
2022-10-19T22:18:59.567Z,102054.59
2022-10-19T22:21:31.165Z,102050.03
2022-10-19T22:24:03.049Z,102040.50
2022-10-19T22:26:32.431Z,102037.72
2022-10-19T22:29:00.987Z,102034.22
2022-10-19T22:31:29.623Z,102028.16
2022-10-19T22:33:56.334Z,102003.94
2022-10-19T22:36:22.883Z,102012.13
2022-10-19T22:38:49.373Z,102011.28
2022-10-19T22:42:12.493Z,102009.66
2022-10-19T22:44:39.028Z,102000.81
2022-10-19T22:47:05.564Z,101992.78
2022-10-19T22:49:33.140Z,101998.81
2022-10-19T22:52:00.280Z,101999.81
2022-10-19T22:54:26.865Z,101990.16
2022-10-19T22:56:53.631Z,101997.09
2022-10-19T22:59:20.131Z,101994.47
2022-10-19T23:01:46.627Z,101984.75
2022-10-19T23:04:13.205Z,101987.13
2022-10-19T23:06:40.826Z,101984.53
2022-10-19T23:09:07.459Z,101966.56
2022-10-19T23:11:33.952Z,101966.59
2022-10-19T23:14:00.516Z,101967.53
2022-10-19T23:18:54.471Z,101959.78
2022-10-19T23:21:21.319Z,101955.22
2022-10-19T23:23:47.787Z,101960.59
2022-10-19T23:26:17.097Z,101951.19
2022-10-19T23:28:46.265Z,101948.44
2022-10-19T23:31:15.731Z,101939.81
2022-10-19T23:33:43.631Z,101942.44
2022-10-19T23:36:15.636Z,101939.78
2022-10-19T23:38:45.034Z,101933.72
2022-10-19T23:41:12.411Z,101928.44
2022-10-19T23:43:39.792Z,101926.81
2022-10-19T23:46:06.638Z,101919.72
2022-10-19T23:48:35.906Z,101927.66
2022-10-19T23:51:04.989Z,101909.69
2022-10-19T23:53:35.842Z,101917.22
2022-10-19T23:56:08.055Z,101918.16
2022-10-19T23:58:34.603Z,101929.50
